Time;durP1;ratioP1;P1;durP2;ratioP2;P2;SDS_P1;SDS_P2;PMS_P1;PMS_P2;Temp;Humidity;BMP_temperature;BMP_pressure;BME280_temperature;BME280_humidity;BME280_pressure;Samples;Min_cycle;Max_cycle;Signal;HPM_P1;HPM_P2
2023/08/26 00:00:51;;;;;;;9.77;8.83;;;24.60;99.90;;;;;;5046399;28;20475;-84
2023/08/26 00:03:18;;;;;;;10.10;9.10;;;24.60;99.90;;;;;;5046891;28;20563;-84
2023/08/26 00:05:44;;;;;;;12.17;8.80;;;24.60;99.90;;;;;;5047448;28;20461;-84
2023/08/26 00:08:11;;;;;;;9.60;8.70;;;24.60;99.90;;;;;;5047662;28;20544;-84
2023/08/26 00:10:38;;;;;;;10.03;9.23;;;24.60;99.90;;;;;;5046206;28;20480;-84
2023/08/26 00:13:05;;;;;;;9.80;8.90;;;24.60;99.90;;;;;;5044743;28;20544;-84
2023/08/26 00:15:32;;;;;;;9.97;9.00;;;24.60;99.90;;;;;;5044974;28;20831;-83
2023/08/26 00:18:00;;;;;;;9.30;8.40;;;24.60;99.90;;;;;;5045668;28;20457;-84
2023/08/26 00:20:28;;;;;;;9.90;8.83;;;24.60;99.90;;;;;;5044064;28;20469;-84
2023/08/26 00:22:55;;;;;;;9.37;8.47;;;24.60;99.90;;;;;;5044712;28;20556;-84
2023/08/26 00:25:22;;;;;;;10.37;9.37;;;24.60;99.90;;;;;;5045858;28;20852;-86
2023/08/26 00:27:49;;;;;;;8.90;8.10;;;24.60;99.90;;;;;;5043183;28;20466;-85
2023/08/26 00:30:16;;;;;;;9.60;8.70;;;24.60;99.90;;;;;;5044644;28;20485;-83
2023/08/26 00:32:43;;;;;;;10.40;9.33;;;24.60;99.90;;;;;;5043702;28;20523;-84
2023/08/26 00:35:11;;;;;;;9.00;8.30;;;24.60;99.90;;;;;;5045551;28;20469;-85
2023/08/26 00:37:38;;;;;;;9.53;8.63;;;24.60;99.90;;;;;;5047050;28;21556;-84
2023/08/26 00:40:06;;;;;;;8.53;7.83;;;24.60;99.90;;;;;;5049434;28;20487;-84
2023/08/26 00:42:36;;;;;;;8.77;7.97;;;24.60;99.90;;;;;;5047747;28;20466;-85
2023/08/26 00:45:04;;;;;;;9.20;8.40;;;24.60;99.90;;;;;;5043225;28;20482;-84
2023/08/26 00:47:31;;;;;;;9.17;8.37;;;24.60;99.90;;;;;;5045389;28;20461;-84
2023/08/26 00:49:57;;;;;;;9.17;8.47;;;24.60;99.90;;;;;;5044807;28;20480;-84
2023/08/26 00:52:26;;;;;;;10.57;9.57;;;24.60;99.90;;;;;;5046831;28;20463;-85
2023/08/26 00:54:52;;;;;;;9.07;8.30;;;24.60;99.90;;;;;;5046531;28;20467;-85
2023/08/26 00:57:19;;;;;;;9.00;8.20;;;24.60;99.90;;;;;;5048785;28;21238;-85
2023/08/26 00:59:46;;;;;;;9.60;8.80;;;24.60;99.90;;;;;;5047576;28;20550;-85
2023/08/26 01:02:13;;;;;;;9.10;8.40;;;24.60;99.90;;;;;;5049163;28;20459;-87
2023/08/26 01:04:41;;;;;;;10.13;8.73;;;24.60;99.90;;;;;;5090429;22;20720;-69
2023/08/26 01:07:08;;;;;;;9.20;8.50;;;24.60;99.90;;;;;;5033968;28;20467;-74
2023/08/26 01:09:37;;;;;;;9.20;8.40;;;24.60;99.90;;;;;;5043207;28;20491;-69
2023/08/26 01:12:16;;;;;;;9.57;8.70;;;24.60;99.90;;;;;;5037459;28;20465;-69
2023/08/26 01:14:50;;;;;;;8.70;7.90;;;24.50;99.90;;;;;;5039026;28;20461;-70
2023/08/26 01:17:19;;;;;;;8.80;8.10;;;24.50;99.90;;;;;;5035021;28;20562;-68
2023/08/26 01:19:46;;;;;;;9.27;8.37;;;24.50;99.90;;;;;;5039168;28;20464;-72
2023/08/26 01:22:16;;;;;;;10.87;8.73;;;24.50;99.90;;;;;;5040922;28;20457;-73
2023/08/26 01:24:44;;;;;;;8.87;8.07;;;24.50;99.90;;;;;;5039123;28;21029;-71
2023/08/26 01:27:11;;;;;;;9.60;8.80;;;24.50;99.90;;;;;;5036705;28;20476;-67
2023/08/26 01:29:38;;;;;;;8.53;7.83;;;24.50;99.90;;;;;;5036384;28;20478;-73
2023/08/26 01:32:16;;;;;;;9.27;8.37;;;24.50;99.90;;;;;;5036086;28;20459;-71
2023/08/26 01:34:48;;;;;;;9.57;8.67;;;24.50;99.90;;;;;;5039453;28;20464;-70
2023/08/26 01:37:18;;;;;;;9.53;8.70;;;24.50;99.90;;;;;;5037124;28;20454;-68
2023/08/26 01:39:48;;;;;;;9.90;9.10;;;24.50;99.90;;;;;;5039575;28;20469;-67
2023/08/26 01:42:19;;;;;;;9.00;8.20;;;24.50;99.90;;;;;;5039867;28;20848;-69
2023/08/26 01:44:46;;;;;;;9.40;8.70;;;24.50;99.90;;;;;;5034993;28;20527;-70
2023/08/26 01:47:13;;;;;;;9.00;8.20;;;24.50;99.90;;;;;;5034700;28;20455;-74
2023/08/26 01:49:40;;;;;;;9.80;8.80;;;24.50;99.90;;;;;;5039531;28;20482;-67
2023/08/26 01:52:07;;;;;;;9.50;8.70;;;24.50;99.90;;;;;;5035034;28;20955;-68
2023/08/26 01:54:33;;;;;;;9.43;8.60;;;24.50;99.90;;;;;;5033689;28;20458;-68
2023/08/26 01:57:01;;;;;;;9.33;8.53;;;24.50;99.90;;;;;;5035861;28;20958;-72
2023/08/26 01:59:28;;;;;;;8.73;8.03;;;24.50;99.90;;;;;;5035399;28;20470;-73
2023/08/26 02:01:55;;;;;;;9.43;8.63;;;24.50;99.90;;;;;;5031776;28;20881;-71
2023/08/26 02:04:22;;;;;;;8.97;8.27;;;24.50;99.90;;;;;;5032630;28;20481;-68
2023/08/26 02:06:49;;;;;;;8.30;7.70;;;24.50;99.90;;;;;;5033549;28;20464;-68
2023/08/26 02:09:16;;;;;;;8.67;7.97;;;24.50;99.90;;;;;;5033567;28;20461;-71
2023/08/26 02:11:42;;;;;;;8.60;7.90;;;24.50;99.90;;;;;;5034989;28;20460;-70
2023/08/26 02:14:10;;;;;;;9.33;8.50;;;24.50;99.90;;;;;;5033658;28;20487;-68
2023/08/26 02:16:37;;;;;;;9.90;9.10;;;24.50;99.90;;;;;;5030275;28;20457;-69
2023/08/26 02:19:04;;;;;;;9.00;8.30;;;24.50;99.90;;;;;;5032610;28;20458;-66
2023/08/26 02:21:30;;;;;;;9.07;8.37;;;24.50;99.90;;;;;;5031503;28;20481;-70
2023/08/26 02:23:57;;;;;;;9.50;8.67;;;24.50;99.90;;;;;;5030280;28;20830;-71
2023/08/26 02:26:24;;;;;;;9.50;8.60;;;24.50;99.90;;;;;;5031065;28;20457;-71
2023/08/26 02:28:50;;;;;;;9.30;8.40;;;24.50;99.90;;;;;;5031356;28;20462;-72
2023/08/26 02:31:18;;;;;;;8.90;8.13;;;24.50;99.90;;;;;;5032940;28;20481;-70
2023/08/26 02:33:45;;;;;;;8.67;7.97;;;24.50;99.90;;;;;;5033240;28;20465;-70
2023/08/26 02:36:12;;;;;;;9.13;8.43;;;24.50;99.90;;;;;;5029075;28;20460;-74
2023/08/26 02:38:39;;;;;;;8.70;7.90;;;24.50;99.90;;;;;;5030783;28;20466;-70
2023/08/26 02:41:07;;;;;;;9.23;8.53;;;24.50;99.90;;;;;;5030781;28;20491;-73
2023/08/26 02:43:34;;;;;;;9.50;8.70;;;24.40;99.90;;;;;;5027095;28;20487;-73
2023/08/26 02:46:00;;;;;;;9.33;8.53;;;24.40;99.90;;;;;;5027096;28;20468;-70
2023/08/26 02:48:30;;;;;;;9.40;8.70;;;24.40;99.90;;;;;;5027911;28;20457;-74
2023/08/26 02:50:57;;;;;;;8.43;7.73;;;24.40;99.90;;;;;;5027804;28;20659;-69
2023/08/26 02:53:24;;;;;;;9.33;8.53;;;24.40;99.90;;;;;;5024438;28;20461;-66
2023/08/26 02:55:51;;;;;;;8.60;7.90;;;24.40;99.90;;;;;;5026633;28;20461;-75
2023/08/26 02:58:18;;;;;;;8.77;8.17;;;24.40;99.90;;;;;;5028281;28;20466;-70
2023/08/26 03:00:45;;;;;;;8.90;8.20;;;24.40;99.90;;;;;;5030085;28;20987;-69
2023/08/26 03:03:12;;;;;;;9.40;8.53;;;24.40;99.90;;;;;;5027393;28;21034;-68
2023/08/26 03:05:40;;;;;;;9.00;8.30;;;24.40;99.90;;;;;;5024434;28;20952;-71
2023/08/26 03:08:07;;;;;;;10.40;9.40;;;24.40;99.90;;;;;;5026201;28;20487;-69
2023/08/26 03:10:34;;;;;;;8.87;8.10;;;24.40;99.90;;;;;;5026698;28;20481;-70
2023/08/26 03:13:00;;;;;;;9.40;8.50;;;24.40;99.90;;;;;;5027733;28;20467;-71
2023/08/26 03:15:27;;;;;;;9.73;8.93;;;24.40;99.90;;;;;;5033695;28;20460;-69
2023/08/26 03:17:54;;;;;;;10.57;9.73;;;24.40;99.90;;;;;;5037467;28;20465;-69
2023/08/26 03:20:21;;;;;;;8.50;7.80;;;24.40;99.90;;;;;;5037126;28;21003;-70
2023/08/26 03:22:49;;;;;;;8.60;7.90;;;24.40;99.90;;;;;;5037052;28;20524;-67
2023/08/26 03:25:15;;;;;;;10.03;9.13;;;24.40;99.90;;;;;;5031580;28;20457;-71
2023/08/26 03:27:42;;;;;;;8.97;8.27;;;24.40;99.90;;;;;;5037772;28;21063;-66
2023/08/26 03:30:09;;;;;;;9.73;8.93;;;24.40;99.90;;;;;;5034946;28;20497;-71
2023/08/26 03:32:36;;;;;;;8.10;7.50;;;24.40;99.90;;;;;;5039503;28;20468;-67
2023/08/26 03:35:03;;;;;;;9.33;8.53;;;24.40;99.90;;;;;;5036872;28;20468;-68
2023/08/26 03:37:30;;;;;;;8.57;7.83;;;24.40;99.90;;;;;;5036183;28;20461;-69
2023/08/26 03:39:59;;;;;;;7.37;6.77;;;24.40;99.90;;;;;;5032705;28;20460;-67
2023/08/26 03:42:26;;;;;;;8.83;8.13;;;24.40;99.90;;;;;;5035185;28;20476;-67
2023/08/26 03:44:53;;;;;;;8.83;8.03;;;24.40;99.90;;;;;;5029958;28;20473;-71
2023/08/26 03:47:19;;;;;;;8.20;7.60;;;24.30;99.90;;;;;;5033584;28;20461;-67
2023/08/26 03:49:46;;;;;;;8.53;7.87;;;24.40;99.90;;;;;;5032992;28;20975;-70
2023/08/26 03:52:13;;;;;;;8.60;7.90;;;24.30;99.90;;;;;;5032925;28;20515;-69
2023/08/26 03:54:39;;;;;;;9.70;8.90;;;24.30;99.90;;;;;;5036118;28;20462;-71
2023/08/26 03:57:07;;;;;;;9.27;7.17;;;24.30;99.90;;;;;;5037952;28;20470;-67
2023/08/26 03:59:34;;;;;;;8.40;7.70;;;24.30;99.90;;;;;;5033395;28;20863;-72
2023/08/26 04:02:02;;;;;;;8.17;7.47;;;24.30;99.90;;;;;;5029521;28;23740;-73
2023/08/26 04:04:30;;;;;;;7.87;7.17;;;24.30;99.90;;;;;;5039132;28;20550;-71
2023/08/26 04:06:57;;;;;;;7.80;7.20;;;24.30;99.90;;;;;;5034736;28;20916;-72
2023/08/26 04:09:24;;;;;;;7.67;6.97;;;24.30;99.90;;;;;;5033012;28;20464;-73
2023/08/26 04:11:51;;;;;;;8.60;7.90;;;24.30;99.90;;;;;;5036385;28;21003;-72
2023/08/26 04:14:19;;;;;;;8.03;7.43;;;24.30;99.90;;;;;;5034431;28;20579;-70
2023/08/26 04:16:45;;;;;;;8.20;7.50;;;24.30;99.90;;;;;;5034152;28;20465;-71
2023/08/26 04:19:12;;;;;;;8.03;7.37;;;24.30;99.90;;;;;;5035142;28;20856;-69
2023/08/26 04:21:39;;;;;;;7.90;7.30;;;24.30;99.90;;;;;;5027926;28;20453;-73
2023/08/26 04:24:06;;;;;;;8.10;7.40;;;24.30;99.90;;;;;;5034797;28;20468;-70
2023/08/26 04:26:33;;;;;;;7.57;6.90;;;24.30;99.90;;;;;;5033769;28;20489;-68
2023/08/26 04:29:00;;;;;;;7.87;7.07;;;24.30;99.90;;;;;;5032872;28;20461;-71
2023/08/26 04:31:28;;;;;;;8.03;7.43;;;24.30;99.90;;;;;;5032813;28;20465;-69
2023/08/26 04:33:54;;;;;;;8.20;7.50;;;24.30;99.90;;;;;;5033019;28;20475;-72
2023/08/26 04:36:21;;;;;;;9.27;8.47;;;24.30;99.90;;;;;;5038237;28;20716;-71
2023/08/26 04:38:48;;;;;;;7.90;7.30;;;24.30;99.90;;;;;;5034491;28;20461;-71
2023/08/26 04:41:14;;;;;;;8.30;7.60;;;24.30;99.90;;;;;;5038129;28;20500;-69
2023/08/26 04:43:41;;;;;;;7.50;6.90;;;24.30;99.90;;;;;;5037079;28;20468;-70
2023/08/26 04:46:08;;;;;;;9.03;8.13;;;24.30;99.90;;;;;;5037545;28;20518;-73
2023/08/26 04:48:36;;;;;;;7.40;6.90;;;24.30;99.90;;;;;;5030738;28;20457;-68
2023/08/26 04:51:05;;;;;;;8.97;8.17;;;24.30;99.90;;;;;;5033374;28;20481;-71
2023/08/26 04:53:32;;;;;;;8.13;7.43;;;24.30;99.90;;;;;;5032367;28;20966;-72
2023/08/26 04:55:59;;;;;;;7.07;6.47;;;24.30;99.90;;;;;;5036799;28;20461;-68
2023/08/26 04:58:26;;;;;;;7.70;7.10;;;24.30;99.90;;;;;;5041132;28;20470;-70
2023/08/26 05:00:53;;;;;;;8.23;7.53;;;24.30;99.90;;;;;;5038368;28;20755;-71
2023/08/26 05:03:20;;;;;;;7.13;6.53;;;24.30;99.90;;;;;;5037796;28;20508;-73
2023/08/26 05:05:48;;;;;;;7.70;7.10;;;24.30;99.90;;;;;;5038068;28;20539;-71
2023/08/26 05:08:14;;;;;;;8.67;7.90;;;24.30;99.90;;;;;;5042976;28;20484;-68
2023/08/26 05:10:42;;;;;;;8.43;7.67;;;24.30;99.90;;;;;;5037244;28;20485;-70
2023/08/26 05:13:09;;;;;;;7.70;7.00;;;24.30;99.90;;;;;;5039765;28;20487;-67
2023/08/26 05:15:35;;;;;;;7.43;6.70;;;24.30;99.90;;;;;;5040748;28;20799;-68
2023/08/26 05:18:03;;;;;;;6.60;6.10;;;24.30;99.90;;;;;;5040775;28;21003;-71
2023/08/26 05:20:30;;;;;;;6.77;6.27;;;24.20;99.90;;;;;;5037997;28;20460;-72
2023/08/26 05:22:58;;;;;;;7.90;7.20;;;24.20;99.90;;;;;;5043943;28;20484;-72
2023/08/26 05:25:25;;;;;;;6.87;6.17;;;24.20;99.90;;;;;;5037781;28;20764;-67
2023/08/26 05:27:52;;;;;;;6.53;6.03;;;24.20;99.90;;;;;;5038359;28;20465;-68
2023/08/26 05:30:18;;;;;;;6.40;5.87;;;24.20;99.90;;;;;;5039266;28;20889;-71
2023/08/26 05:32:45;;;;;;;6.13;5.63;;;24.20;99.90;;;;;;5038361;28;20538;-70
2023/08/26 05:35:12;;;;;;;7.03;6.43;;;24.20;99.90;;;;;;5040576;28;20786;-68
2023/08/26 05:37:43;;;;;;;6.00;5.50;;;24.20;99.90;;;;;;5038318;28;20459;-71
2023/08/26 05:40:12;;;;;;;6.03;5.50;;;24.20;99.90;;;;;;5038784;28;20459;-68
2023/08/26 05:42:39;;;;;;;6.37;5.77;;;24.20;99.90;;;;;;5039988;28;20993;-71
2023/08/26 05:45:06;;;;;;;6.77;6.17;;;24.20;99.90;;;;;;5030488;28;20462;-72
2023/08/26 05:47:33;;;;;;;6.47;5.97;;;24.20;99.90;;;;;;5032453;28;20476;-68
2023/08/26 05:50:00;;;;;;;5.40;5.00;;;24.20;99.90;;;;;;5029820;28;20965;-73
2023/08/26 05:52:27;;;;;;;6.53;5.97;;;24.20;99.90;;;;;;5031505;28;20507;-76
2023/08/26 05:54:53;;;;;;;6.53;6.00;;;24.20;99.90;;;;;;5029726;28;20457;-68
2023/08/26 05:57:21;;;;;;;6.50;5.90;;;24.20;99.90;;;;;;5034627;28;20465;-67
2023/08/26 05:59:48;;;;;;;5.97;5.47;;;24.20;99.90;;;;;;5032805;28;20456;-74
2023/08/26 06:02:15;;;;;;;6.30;5.80;;;24.20;99.90;;;;;;5037712;28;20460;-68
2023/08/26 06:04:41;;;;;;;6.20;5.57;;;24.20;99.90;;;;;;5034008;28;20473;-67
2023/08/26 06:07:08;;;;;;;6.40;5.57;;;24.10;99.90;;;;;;5033925;28;20457;-70
2023/08/26 06:09:35;;;;;;;4.47;4.07;;;24.10;99.90;;;;;;5036887;28;20465;-68
2023/08/26 06:12:01;;;;;;;5.20;4.80;;;24.10;99.90;;;;;;5033366;28;20995;-68
2023/08/26 06:14:29;;;;;;;6.40;4.63;;;24.10;99.90;;;;;;5033114;28;20733;-71
2023/08/26 06:16:56;;;;;;;4.77;4.37;;;24.10;99.90;;;;;;5034492;28;20453;-67
2023/08/26 06:19:23;;;;;;;5.47;4.30;;;24.10;99.90;;;;;;5035590;28;20473;-70
2023/08/26 06:21:49;;;;;;;4.10;3.73;;;24.10;99.90;;;;;;5038409;28;20468;-71
2023/08/26 06:24:16;;;;;;;4.23;3.83;;;24.00;99.90;;;;;;5035854;28;20995;-69
2023/08/26 06:26:44;;;;;;;4.83;3.93;;;24.00;99.90;;;;;;5037334;28;20473;-74
2023/08/26 06:29:13;;;;;;;6.80;3.27;;;24.00;99.90;;;;;;5037709;28;20457;-70
2023/08/26 06:31:42;;;;;;;3.50;3.20;;;24.00;99.90;;;;;;5038266;28;20531;-70
2023/08/26 06:34:08;;;;;;;4.23;3.83;;;24.00;99.90;;;;;;5041285;28;20461;-70
2023/08/26 06:36:35;;;;;;;5.33;3.93;;;24.00;99.90;;;;;;5040544;28;20542;-70
2023/08/26 06:39:03;;;;;;;3.40;3.10;;;24.00;99.90;;;;;;5031340;28;20469;-71
2023/08/26 06:41:32;;;;;;;4.37;3.63;;;24.00;99.90;;;;;;5037885;28;20465;-68
2023/08/26 06:43:58;;;;;;;4.60;3.27;;;24.00;99.90;;;;;;5035827;28;20974;-73
2023/08/26 06:46:25;;;;;;;3.63;3.33;;;24.00;99.90;;;;;;5033915;28;20472;-71
2023/08/26 06:48:53;;;;;;;5.37;4.57;;;23.90;99.90;;;;;;5037359;28;20475;-68
2023/08/26 06:51:21;;;;;;;3.63;3.07;;;23.90;99.90;;;;;;5035643;28;20519;-68
2023/08/26 06:53:47;;;;;;;6.40;2.90;;;23.90;99.90;;;;;;5034195;28;20471;-68
2023/08/26 06:56:15;;;;;;;4.33;2.73;;;23.90;99.90;;;;;;5029594;28;21222;-71
2023/08/26 06:58:41;;;;;;;2.83;2.23;;;23.90;99.90;;;;;;5032598;28;20475;-67
2023/08/26 07:01:08;;;;;;;7.17;2.30;;;23.90;99.90;;;;;;5033059;28;20459;-70
2023/08/26 07:03:35;;;;;;;6.83;2.27;;;23.80;99.90;;;;;;5030594;28;20983;-70
2023/08/26 07:06:04;;;;;;;4.07;1.90;;;23.70;99.90;;;;;;5031650;28;20456;-68
2023/08/26 07:08:30;;;;;;;7.73;2.10;;;23.70;99.90;;;;;;5031887;28;20472;-67
2023/08/26 07:10:57;;;;;;;3.87;1.73;;;23.60;99.90;;;;;;5032021;28;21058;-70
2023/08/26 07:13:24;;;;;;;6.13;1.87;;;23.60;99.90;;;;;;5032484;28;20452;-69
2023/08/26 07:15:50;;;;;;;2.40;1.50;;;23.60;99.90;;;;;;5023552;28;20470;-67
2023/08/26 07:18:17;;;;;;;4.20;2.37;;;23.50;99.90;;;;;;5028725;28;20458;-69
2023/08/26 07:20:45;;;;;;;4.70;1.70;;;23.50;99.90;;;;;;5039284;28;20476;-71
2023/08/26 07:23:13;;;;;;;4.90;1.90;;;23.50;99.90;;;;;;5039613;28;20543;-69
2023/08/26 07:25:41;;;;;;;4.20;2.00;;;23.40;99.90;;;;;;5031336;28;20463;-71
2023/08/26 07:28:08;;;;;;;3.23;1.07;;;23.40;99.90;;;;;;5033592;28;20500;-67
2023/08/26 07:30:35;;;;;;;4.33;1.80;;;23.40;99.90;;;;;;5035015;28;20467;-68
2023/08/26 07:33:01;;;;;;;3.53;1.53;;;23.30;99.90;;;;;;5035934;28;20830;-69
2023/08/26 07:35:28;;;;;;;3.00;1.97;;;23.30;99.90;;;;;;5036913;28;20457;-70
2023/08/26 07:37:55;;;;;;;2.83;1.83;;;23.30;99.90;;;;;;5032320;28;20457;-67
2023/08/26 07:40:23;;;;;;;3.60;1.60;;;23.30;99.90;;;;;;5032927;28;20468;-71
2023/08/26 07:42:49;;;;;;;5.50;1.83;;;23.30;99.90;;;;;;5033280;28;20489;-72
2023/08/26 07:45:16;;;;;;;2.53;2.00;;;23.20;99.90;;;;;;5031714;28;20554;-68
2023/08/26 07:47:43;;;;;;;3.37;1.40;;;23.20;99.90;;;;;;5024286;28;20504;-70
2023/08/26 07:50:10;;;;;;;3.83;1.47;;;23.20;99.90;;;;;;5033990;28;20807;-66
2023/08/26 07:52:37;;;;;;;7.10;1.53;;;23.20;99.90;;;;;;5031722;28;20481;-70
2023/08/26 07:55:05;;;;;;;4.93;1.43;;;23.20;99.90;;;;;;5032431;28;20537;-70
2023/08/26 07:57:33;;;;;;;4.27;1.80;;;23.20;99.90;;;;;;5030633;28;20543;-71
2023/08/26 07:59:59;;;;;;;4.53;1.70;;;23.20;99.90;;;;;;5031722;28;20457;-71
2023/08/26 08:02:26;;;;;;;4.30;1.40;;;23.20;99.90;;;;;;5026014;28;20491;-66
2023/08/26 08:04:53;;;;;;;2.00;1.20;;;23.10;99.90;;;;;;5026234;28;20464;-68
2023/08/26 08:07:20;;;;;;;4.80;1.47;;;23.10;99.90;;;;;;5031350;28;20458;-69
2023/08/26 08:09:46;;;;;;;7.03;2.33;;;23.10;99.90;;;;;;5031003;28;20460;-72
2023/08/26 08:12:14;;;;;;;2.13;1.10;;;23.10;99.90;;;;;;5032939;28;20489;-66
2023/08/26 08:14:42;;;;;;;2.53;1.50;;;23.10;99.90;;;;;;5033509;28;20457;-69
2023/08/26 08:17:09;;;;;;;2.73;1.30;;;23.00;99.90;;;;;;5032808;28;20452;-67
2023/08/26 08:19:38;;;;;;;3.20;1.90;;;23.10;99.90;;;;;;5031387;28;20457;-69
2023/08/26 08:22:05;;;;;;;3.63;1.27;;;23.10;99.90;;;;;;5023930;28;20616;-72
2023/08/26 08:24:32;;;;;;;2.37;1.30;;;23.00;99.90;;;;;;5024751;28;20465;-69
2023/08/26 08:26:58;;;;;;;5.53;1.50;;;23.00;99.90;;;;;;5028602;28;20472;-67
2023/08/26 08:29:25;;;;;;;4.87;1.47;;;23.00;99.90;;;;;;5025439;28;20968;-69
2023/08/26 08:31:53;;;;;;;2.90;1.63;;;23.00;99.90;;;;;;5027902;28;20484;-70
2023/08/26 08:34:20;;;;;;;4.53;1.83;;;23.00;99.90;;;;;;5024128;28;20462;-67
2023/08/26 08:36:46;;;;;;;3.23;1.63;;;23.00;99.90;;;;;;5030360;28;20469;-68
2023/08/26 08:39:13;;;;;;;3.10;1.30;;;23.00;99.90;;;;;;5033374;28;21007;-67
2023/08/26 08:41:42;;;;;;;3.60;1.53;;;22.90;99.90;;;;;;5032341;28;20465;-66
2023/08/26 08:44:11;;;;;;;2.70;1.27;;;22.90;99.90;;;;;;5032075;28;20461;-66
2023/08/26 08:46:38;;;;;;;4.23;1.40;;;22.90;99.90;;;;;;5026714;28;20769;-67
2023/08/26 08:49:07;;;;;;;3.53;1.30;;;22.90;99.90;;;;;;5024717;28;20461;-67
2023/08/26 08:51:36;;;;;;;4.10;1.43;;;22.90;99.90;;;;;;5019932;28;20458;-69
2023/08/26 08:54:05;;;;;;;2.70;1.10;;;22.90;99.90;;;;;;5022657;28;20889;-68
2023/08/26 08:56:33;;;;;;;4.10;1.43;;;22.80;99.90;;;;;;5023627;28;20468;-68
2023/08/26 08:59:01;;;;;;;2.33;1.43;;;22.80;99.80;;;;;;5027206;28;21016;-64
2023/08/26 09:01:29;;;;;;;3.73;1.17;;;22.80;99.70;;;;;;5026933;28;20830;-66
2023/08/26 09:03:56;;;;;;;6.97;1.93;;;22.80;99.70;;;;;;5028016;28;20462;-66
2023/08/26 09:06:24;;;;;;;4.37;1.27;;;22.80;99.90;;;;;;5031300;28;20736;-65
2023/08/26 09:08:51;;;;;;;2.60;1.33;;;22.80;99.80;;;;;;5035054;28;20836;-65
2023/08/26 09:11:18;;;;;;;9.43;1.37;;;22.90;99.80;;;;;;5034390;28;20463;-65
2023/08/26 09:13:45;;;;;;;2.33;1.30;;;22.90;99.90;;;;;;5025685;28;20573;-66
2023/08/26 09:16:12;;;;;;;3.30;1.77;;;22.90;99.90;;;;;;5024957;28;20461;-65
2023/08/26 09:18:40;;;;;;;2.97;1.23;;;22.90;99.90;;;;;;5029345;28;20457;-68
2023/08/26 09:21:10;;;;;;;2.63;1.43;;;23.00;99.90;;;;;;5036189;28;20456;-70
2023/08/26 09:23:45;;;;;;;3.70;1.30;;;23.00;99.90;;;;;;5040910;28;20461;-67
2023/08/26 09:26:12;;;;;;;4.47;1.50;;;23.00;99.90;;;;;;5034266;28;23894;-66
2023/08/26 09:28:39;;;;;;;5.30;1.70;;;23.00;99.90;;;;;;5040003;28;20461;-68
2023/08/26 09:31:07;;;;;;;2.90;2.03;;;23.00;99.90;;;;;;5040322;28;20457;-67
2023/08/26 09:33:34;;;;;;;2.27;1.57;;;23.00;99.90;;;;;;5040705;28;20489;-64
2023/08/26 09:36:01;;;;;;;1.80;1.50;;;23.00;99.90;;;;;;5035155;28;20465;-62
2023/08/26 09:38:31;;;;;;;3.40;1.30;;;23.00;99.90;;;;;;5033412;28;20508;-63
2023/08/26 09:41:00;;;;;;;4.37;1.30;;;23.00;99.90;;;;;;5038299;28;20461;-61
2023/08/26 09:43:27;;;;;;;2.73;1.67;;;23.10;99.90;;;;;;5038631;28;20996;-61
2023/08/26 09:45:57;;;;;;;3.13;1.30;;;23.10;99.90;;;;;;5031981;28;21994;-65
2023/08/26 09:48:25;;;;;;;2.60;1.10;;;23.10;99.90;;;;;;5029096;28;20838;-66
2023/08/26 09:50:52;;;;;;;2.87;1.40;;;23.10;99.90;;;;;;5030757;28;20462;-59
2023/08/26 09:53:31;;;;;;;2.40;1.40;;;23.10;99.90;;;;;;5029484;28;20508;-60
2023/08/26 09:56:00;;;;;;;4.07;1.60;;;23.10;99.90;;;;;;5036236;28;20534;-62
2023/08/26 09:58:27;;;;;;;2.50;1.43;;;23.10;99.90;;;;;;5033298;28;20566;-62
2023/08/26 10:00:54;;;;;;;2.13;1.20;;;23.10;99.90;;;;;;5029515;28;22238;-60
2023/08/26 10:03:24;;;;;;;4.53;2.60;;;23.10;99.90;;;;;;5030651;28;20462;-63
2023/08/26 10:05:54;;;;;;;2.20;1.47;;;23.10;99.90;;;;;;5033193;28;20468;-60
2023/08/26 10:08:28;;;;;;;1.60;1.20;;;23.10;99.90;;;;;;5036345;28;20983;-56
2023/08/26 10:10:55;;;;;;;5.47;1.80;;;23.10;99.90;;;;;;5033607;28;20457;-61
2023/08/26 10:13:28;;;;;;;1.93;1.50;;;23.10;99.90;;;;;;5032582;28;21057;-62
2023/08/26 10:15:58;;;;;;;1.50;1.10;;;23.10;99.90;;;;;;5029058;28;20526;-62
2023/08/26 10:18:33;;;;;;;3.37;1.73;;;23.10;99.90;;;;;;5028869;28;20455;-58
2023/08/26 10:21:02;;;;;;;2.33;1.20;;;23.10;99.90;;;;;;5024714;28;20654;-62
2023/08/26 10:23:29;;;;;;;3.63;1.73;;;23.10;99.90;;;;;;5031180;28;21065;-59
2023/08/26 10:25:57;;;;;;;2.50;1.30;;;23.10;99.90;;;;;;5029446;28;20547;-56
2023/08/26 10:28:26;;;;;;;2.70;1.57;;;23.10;99.90;;;;;;5032816;28;20458;-59
2023/08/26 10:30:54;;;;;;;1.80;1.13;;;23.20;99.90;;;;;;5036172;28;20898;-61
2023/08/26 10:33:21;;;;;;;3.63;1.20;;;23.20;99.90;;;;;;5037043;28;20498;-62
2023/08/26 10:35:59;;;;;;;3.90;1.60;;;23.20;99.90;;;;;;5037579;28;20461;-63
2023/08/26 10:38:26;;;;;;;6.93;1.40;;;23.20;99.90;;;;;;5026131;28;20560;-64
2023/08/26 10:41:08;;;;;;;3.73;1.13;;;23.20;99.90;;;;;;5027821;28;20468;-58
2023/08/26 10:43:36;;;;;;;4.60;1.20;;;23.20;99.90;;;;;;5027544;28;20520;-64
2023/08/26 10:46:02;;;;;;;2.30;1.10;;;23.20;99.90;;;;;;5028740;28;20456;-65
2023/08/26 10:48:29;;;;;;;5.83;1.93;;;23.20;99.80;;;;;;5024822;28;20461;-63
2023/08/26 10:51:00;;;;;;;4.00;2.13;;;23.20;99.80;;;;;;5032208;28;20459;-63
2023/08/26 10:53:27;;;;;;;1.47;1.00;;;23.20;99.70;;;;;;5027734;28;20480;-62
2023/08/26 10:56:12;;;;;;;3.53;1.90;;;23.20;99.80;;;;;;5032065;28;20470;-63
2023/08/26 10:58:45;;;;;;;3.10;1.23;;;23.20;99.80;;;;;;5036877;28;20469;-63
2023/08/26 11:01:12;;;;;;;1.83;1.17;;;23.20;99.80;;;;;;5030927;28;21376;-61
2023/08/26 11:03:39;;;;;;;2.43;1.40;;;23.20;99.80;;;;;;5032205;28;20498;-58
2023/08/26 11:06:08;;;;;;;1.60;1.30;;;23.30;99.90;;;;;;5031334;28;20467;-59
2023/08/26 11:08:37;;;;;;;1.90;1.20;;;23.30;99.90;;;;;;5027877;28;20904;-66
2023/08/26 11:11:04;;;;;;;2.80;1.20;;;23.30;99.90;;;;;;5032512;28;20501;-60
2023/08/26 11:13:31;;;;;;;2.57;1.30;;;23.30;99.90;;;;;;5033155;28;21081;-58
2023/08/26 11:15:59;;;;;;;1.17;1.00;;;23.40;99.90;;;;;;5027009;28;20497;-58
2023/08/26 11:18:26;;;;;;;7.47;1.80;;;23.40;99.90;;;;;;5021327;28;20466;-62
2023/08/26 11:20:53;;;;;;;1.83;1.40;;;23.40;99.90;;;;;;5027140;28;20455;-63
2023/08/26 11:23:25;;;;;;;2.40;1.30;;;23.40;99.90;;;;;;5029813;28;20474;-59
2023/08/26 11:25:51;;;;;;;4.00;1.73;;;23.40;99.90;;;;;;5036220;28;20455;-62
2023/08/26 11:28:18;;;;;;;5.17;1.10;;;23.50;99.90;;;;;;5035936;28;20973;-62
2023/08/26 11:30:46;;;;;;;3.43;1.17;;;23.50;99.90;;;;;;5033530;28;20461;-61
2023/08/26 11:33:17;;;;;;;4.13;1.60;;;23.50;99.90;;;;;;5036096;28;20518;-60
2023/08/26 11:35:45;;;;;;;2.10;1.30;;;23.50;99.70;;;;;;5034248;28;20467;-65
2023/08/26 11:38:12;;;;;;;1.73;1.20;;;23.50;99.60;;;;;;5033800;28;20456;-62
2023/08/26 11:40:40;;;;;;;5.07;1.10;;;23.60;99.60;;;;;;5028921;28;20467;-65
2023/08/26 11:43:07;;;;;;;2.73;1.27;;;23.60;99.60;;;;;;5027577;28;20465;-64
2023/08/26 11:45:35;;;;;;;3.30;1.30;;;23.60;99.50;;;;;;5026526;28;20457;-64
2023/08/26 11:48:02;;;;;;;1.87;1.20;;;23.60;99.60;;;;;;5027577;28;21319;-61
2023/08/26 11:50:31;;;;;;;2.00;1.30;;;23.60;99.40;;;;;;5023637;28;20470;-62
2023/08/26 11:53:02;;;;;;;1.93;1.47;;;23.70;99.40;;;;;;5028822;28;20488;-63
2023/08/26 11:55:30;;;;;;;1.87;1.30;;;23.70;99.10;;;;;;5026369;28;20464;-59
2023/08/26 11:57:58;;;;;;;2.37;1.00;;;23.70;99.20;;;;;;5024114;28;20476;-65
2023/08/26 12:00:25;;;;;;;2.87;1.10;;;23.70;99.10;;;;;;5024899;28;20461;-61
2023/08/26 12:02:53;;;;;;;1.57;1.20;;;23.70;99.10;;;;;;5028322;28;20460;-65
2023/08/26 12:05:20;;;;;;;1.83;1.00;;;23.80;99.10;;;;;;5029404;28;20462;-64
2023/08/26 12:07:50;;;;;;;1.70;1.20;;;23.80;99.10;;;;;;5030262;28;20476;-62
2023/08/26 12:10:18;;;;;;;3.37;1.03;;;23.80;99.10;;;;;;5030876;28;20833;-63
2023/08/26 12:12:47;;;;;;;1.53;1.20;;;23.80;99.20;;;;;;5026573;28;20498;-65
2023/08/26 12:15:15;;;;;;;1.57;1.00;;;23.90;99.30;;;;;;5032945;28;20484;-60
2023/08/26 12:17:44;;;;;;;2.83;1.30;;;23.90;99.30;;;;;;5028524;28;20468;-64
2023/08/26 12:20:24;;;;;;;5.00;1.60;;;23.90;99.30;;;;;;5030356;28;20472;-59
2023/08/26 12:22:53;;;;;;;2.53;1.00;;;23.90;99.10;;;;;;5032149;28;20449;-64
2023/08/26 12:25:24;;;;;;;2.67;1.10;;;23.90;99.10;;;;;;5033513;28;20455;-62
2023/08/26 12:27:51;;;;;;;5.50;1.40;;;24.00;99.20;;;;;;5028405;28;20475;-64
2023/08/26 12:30:19;;;;;;;2.50;1.37;;;24.00;99.20;;;;;;5023847;28;20460;-60
2023/08/26 12:32:46;;;;;;;1.20;1.07;;;24.00;99.30;;;;;;5029275;28;20532;-63
2023/08/26 12:35:13;;;;;;;2.90;1.23;;;24.00;99.40;;;;;;5029270;28;21856;-64
2023/08/26 12:37:40;;;;;;;1.67;1.10;;;24.00;99.40;;;;;;5025731;28;20999;-62
2023/08/26 12:40:10;;;;;;;1.40;1.20;;;24.10;99.60;;;;;;5030065;28;20552;-63
2023/08/26 12:42:37;;;;;;;1.67;1.27;;;24.10;99.60;;;;;;5035489;28;20581;-65
2023/08/26 12:45:05;;;;;;;2.70;1.47;;;24.10;99.80;;;;;;5034200;28;20457;-61
2023/08/26 12:47:31;;;;;;;2.30;1.13;;;24.10;99.80;;;;;;5030975;28;20457;-64